sensor_id;sensor_type;location;lat;lon;timestamp;P1;durP1;ratioP1;P2;durP2;ratioP2
78716;SDS011;68045;50.042;14.432;2023-11-21T00:00:44;4.65;;;2.25;;
78716;SDS011;68045;50.042;14.432;2023-11-21T00:05:07;6.28;;;2.60;;
78716;SDS011;68045;50.042;14.432;2023-11-21T00:09:10;6.53;;;2.60;;
78716;SDS011;68045;50.042;14.432;2023-11-21T00:13:13;4.57;;;2.65;;
78716;SDS011;68045;50.042;14.432;2023-11-21T00:17:14;5.82;;;2.80;;
78716;SDS011;68045;50.042;14.432;2023-11-21T00:21:15;7.70;;;2.33;;
78716;SDS011;68045;50.042;14.432;2023-11-21T00:25:16;9.30;;;2.58;;
78716;SDS011;68045;50.042;14.432;2023-11-21T00:29:18;5.40;;;2.40;;
78716;SDS011;68045;50.042;14.432;2023-11-21T00:33:18;4.72;;;2.47;;
78716;SDS011;68045;50.042;14.432;2023-11-21T00:37:20;7.28;;;2.30;;
78716;SDS011;68045;50.042;14.432;2023-11-21T00:41:22;4.88;;;2.72;;
78716;SDS011;68045;50.042;14.432;2023-11-21T00:45:23;3.83;;;2.28;;
78716;SDS011;68045;50.042;14.432;2023-11-21T00:49:23;6.00;;;2.65;;
78716;SDS011;68045;50.042;14.432;2023-11-21T00:53:24;3.72;;;1.90;;
78716;SDS011;68045;50.042;14.432;2023-11-21T00:57:26;4.55;;;2.33;;
78716;SDS011;68045;50.042;14.432;2023-11-21T01:01:27;7.20;;;2.20;;
78716;SDS011;68045;50.042;14.432;2023-11-21T01:05:28;4.75;;;1.88;;
78716;SDS011;68045;50.042;14.432;2023-11-21T01:09:28;4.50;;;2.38;;
78716;SDS011;68045;50.042;14.432;2023-11-21T01:13:30;4.93;;;2.50;;
78716;SDS011;68045;50.042;14.432;2023-11-21T01:17:31;5.15;;;2.28;;
78716;SDS011;68045;50.042;14.432;2023-11-21T01:21:32;7.43;;;2.28;;
78716;SDS011;68045;50.042;14.432;2023-11-21T01:25:34;3.40;;;2.05;;
78716;SDS011;68045;50.042;14.432;2023-11-21T01:29:35;3.03;;;2.10;;
78716;SDS011;68045;50.042;14.432;2023-11-21T01:33:36;5.30;;;2.42;;
78716;SDS011;68045;50.042;14.432;2023-11-21T01:37:37;5.38;;;2.05;;
78716;SDS011;68045;50.042;14.432;2023-11-21T01:41:38;6.15;;;2.38;;
78716;SDS011;68045;50.042;14.432;2023-11-21T01:45:39;5.68;;;2.20;;
78716;SDS011;68045;50.042;14.432;2023-11-21T01:49:39;4.15;;;2.20;;
78716;SDS011;68045;50.042;14.432;2023-11-21T01:53:40;3.97;;;2.47;;
78716;SDS011;68045;50.042;14.432;2023-11-21T01:57:42;5.05;;;2.42;;
78716;SDS011;68045;50.042;14.432;2023-11-21T02:01:43;6.15;;;2.33;;
78716;SDS011;68045;50.042;14.432;2023-11-21T02:05:44;2.75;;;1.83;;
78716;SDS011;68045;50.042;14.432;2023-11-21T02:09:45;7.20;;;2.35;;
78716;SDS011;68045;50.042;14.432;2023-11-21T02:13:46;5.57;;;2.40;;
78716;SDS011;68045;50.042;14.432;2023-11-21T02:17:47;6.32;;;1.90;;
78716;SDS011;68045;50.042;14.432;2023-11-21T02:21:54;3.42;;;2.10;;
78716;SDS011;68045;50.042;14.432;2023-11-21T02:25:59;5.53;;;2.03;;
78716;SDS011;68045;50.042;14.432;2023-11-21T02:30:04;7.43;;;2.40;;
78716;SDS011;68045;50.042;14.432;2023-11-21T02:34:08;7.45;;;2.50;;
78716;SDS011;68045;50.042;14.432;2023-11-21T02:38:09;3.95;;;2.00;;
78716;SDS011;68045;50.042;14.432;2023-11-21T02:42:10;4.72;;;2.50;;
78716;SDS011;68045;50.042;14.432;2023-11-21T02:46:11;6.72;;;1.92;;
78716;SDS011;68045;50.042;14.432;2023-11-21T02:50:14;4.85;;;2.30;;
78716;SDS011;68045;50.042;14.432;2023-11-21T02:54:15;4.70;;;2.08;;
78716;SDS011;68045;50.042;14.432;2023-11-21T02:58:17;3.90;;;2.28;;
78716;SDS011;68045;50.042;14.432;2023-11-21T03:02:18;4.13;;;2.20;;
78716;SDS011;68045;50.042;14.432;2023-11-21T03:06:19;4.93;;;2.08;;
78716;SDS011;68045;50.042;14.432;2023-11-21T03:10:20;3.47;;;1.90;;
78716;SDS011;68045;50.042;14.432;2023-11-21T03:14:21;5.35;;;2.85;;
78716;SDS011;68045;50.042;14.432;2023-11-21T03:18:22;2.97;;;1.98;;
78716;SDS011;68045;50.042;14.432;2023-11-21T03:22:23;7.63;;;2.65;;
78716;SDS011;68045;50.042;14.432;2023-11-21T03:26:26;5.22;;;2.50;;
78716;SDS011;68045;50.042;14.432;2023-11-21T03:30:26;4.70;;;2.53;;
78716;SDS011;68045;50.042;14.432;2023-11-21T03:34:29;6.28;;;2.58;;
78716;SDS011;68045;50.042;14.432;2023-11-21T03:38:30;3.72;;;2.00;;
78716;SDS011;68045;50.042;14.432;2023-11-21T03:42:31;4.93;;;2.25;;
78716;SDS011;68045;50.042;14.432;2023-11-21T03:46:31;8.13;;;2.50;;
78716;SDS011;68045;50.042;14.432;2023-11-21T03:50:32;7.47;;;2.33;;
78716;SDS011;68045;50.042;14.432;2023-11-21T03:54:34;3.15;;;2.00;;
78716;SDS011;68045;50.042;14.432;2023-11-21T03:58:35;2.65;;;1.45;;
78716;SDS011;68045;50.042;14.432;2023-11-21T04:02:35;5.60;;;2.15;;
78716;SDS011;68045;50.042;14.432;2023-11-21T04:06:36;7.88;;;2.80;;
78716;SDS011;68045;50.042;14.432;2023-11-21T04:10:38;5.53;;;2.40;;
78716;SDS011;68045;50.042;14.432;2023-11-21T04:14:40;6.85;;;2.83;;
78716;SDS011;68045;50.042;14.432;2023-11-21T04:18:42;5.55;;;2.25;;
78716;SDS011;68045;50.042;14.432;2023-11-21T04:22:43;3.47;;;2.05;;
78716;SDS011;68045;50.042;14.432;2023-11-21T04:26:44;3.92;;;2.20;;
78716;SDS011;68045;50.042;14.432;2023-11-21T04:30:45;10.80;;;2.15;;
78716;SDS011;68045;50.042;14.432;2023-11-21T04:34:46;4.65;;;2.10;;
78716;SDS011;68045;50.042;14.432;2023-11-21T04:38:46;7.35;;;2.72;;
78716;SDS011;68045;50.042;14.432;2023-11-21T04:42:47;5.20;;;2.20;;
78716;SDS011;68045;50.042;14.432;2023-11-21T04:46:48;4.10;;;2.13;;
78716;SDS011;68045;50.042;14.432;2023-11-21T04:50:49;3.05;;;1.88;;
78716;SDS011;68045;50.042;14.432;2023-11-21T04:54:50;2.78;;;1.65;;
78716;SDS011;68045;50.042;14.432;2023-11-21T04:58:52;8.38;;;2.95;;
78716;SDS011;68045;50.042;14.432;2023-11-21T05:02:54;3.83;;;2.25;;
78716;SDS011;68045;50.042;14.432;2023-11-21T05:06:54;4.65;;;1.77;;
78716;SDS011;68045;50.042;14.432;2023-11-21T05:10:55;4.28;;;2.20;;
78716;SDS011;68045;50.042;14.432;2023-11-21T05:14:56;4.07;;;2.38;;
78716;SDS011;68045;50.042;14.432;2023-11-21T05:18:58;5.45;;;2.30;;
78716;SDS011;68045;50.042;14.432;2023-11-21T05:23:01;9.35;;;2.40;;
78716;SDS011;68045;50.042;14.432;2023-11-21T05:27:02;6.72;;;2.20;;
78716;SDS011;68045;50.042;14.432;2023-11-21T05:31:03;4.80;;;2.28;;
78716;SDS011;68045;50.042;14.432;2023-11-21T05:35:04;5.60;;;2.35;;
78716;SDS011;68045;50.042;14.432;2023-11-21T05:39:10;3.80;;;2.00;;
78716;SDS011;68045;50.042;14.432;2023-11-21T05:43:11;6.35;;;2.42;;
78716;SDS011;68045;50.042;14.432;2023-11-21T05:47:12;4.93;;;1.80;;
78716;SDS011;68045;50.042;14.432;2023-11-21T05:51:14;6.60;;;2.45;;
78716;SDS011;68045;50.042;14.432;2023-11-21T05:55:15;6.32;;;2.63;;
78716;SDS011;68045;50.042;14.432;2023-11-21T05:59:16;3.17;;;2.00;;
78716;SDS011;68045;50.042;14.432;2023-11-21T06:03:17;7.95;;;2.22;;
78716;SDS011;68045;50.042;14.432;2023-11-21T06:07:18;3.58;;;2.15;;
78716;SDS011;68045;50.042;14.432;2023-11-21T06:11:19;3.33;;;1.70;;
78716;SDS011;68045;50.042;14.432;2023-11-21T06:15:20;3.30;;;2.05;;
78716;SDS011;68045;50.042;14.432;2023-11-21T06:19:23;3.20;;;2.28;;
78716;SDS011;68045;50.042;14.432;2023-11-21T06:23:25;5.00;;;2.45;;
78716;SDS011;68045;50.042;14.432;2023-11-21T06:27:26;5.55;;;2.17;;
78716;SDS011;68045;50.042;14.432;2023-11-21T06:31:27;5.15;;;2.22;;
78716;SDS011;68045;50.042;14.432;2023-11-21T06:35:28;4.80;;;2.00;;
78716;SDS011;68045;50.042;14.432;2023-11-21T06:39:30;7.97;;;2.45;;
78716;SDS011;68045;50.042;14.432;2023-11-21T06:43:31;6.50;;;2.67;;
78716;SDS011;68045;50.042;14.432;2023-11-21T06:47:32;5.82;;;2.40;;
78716;SDS011;68045;50.042;14.432;2023-11-21T06:51:33;5.38;;;2.50;;
78716;SDS011;68045;50.042;14.432;2023-11-21T06:55:33;4.22;;;2.22;;
78716;SDS011;68045;50.042;14.432;2023-11-21T06:59:34;5.65;;;2.60;;
78716;SDS011;68045;50.042;14.432;2023-11-21T07:03:35;4.82;;;2.58;;
78716;SDS011;68045;50.042;14.432;2023-11-21T07:07:37;7.28;;;2.53;;
78716;SDS011;68045;50.042;14.432;2023-11-21T07:11:39;4.20;;;2.65;;
78716;SDS011;68045;50.042;14.432;2023-11-21T07:15:40;4.50;;;2.47;;
78716;SDS011;68045;50.042;14.432;2023-11-21T07:19:41;4.28;;;2.75;;
78716;SDS011;68045;50.042;14.432;2023-11-21T07:23:42;5.78;;;2.90;;
78716;SDS011;68045;50.042;14.432;2023-11-21T07:27:42;5.97;;;2.85;;
78716;SDS011;68045;50.042;14.432;2023-11-21T07:31:43;6.43;;;2.50;;
78716;SDS011;68045;50.042;14.432;2023-11-21T07:35:45;6.25;;;3.10;;
78716;SDS011;68045;50.042;14.432;2023-11-21T07:39:46;7.63;;;2.90;;
78716;SDS011;68045;50.042;14.432;2023-11-21T07:43:47;4.43;;;2.53;;
78716;SDS011;68045;50.042;14.432;2023-11-21T07:47:48;4.85;;;2.30;;
78716;SDS011;68045;50.042;14.432;2023-11-21T07:51:48;5.68;;;2.55;;
78716;SDS011;68045;50.042;14.432;2023-11-21T07:55:49;5.43;;;2.55;;
78716;SDS011;68045;50.042;14.432;2023-11-21T07:59:50;5.18;;;2.83;;
78716;SDS011;68045;50.042;14.432;2023-11-21T08:03:54;9.07;;;2.78;;
78716;SDS011;68045;50.042;14.432;2023-11-21T08:07:57;9.13;;;2.83;;
78716;SDS011;68045;50.042;14.432;2023-11-21T08:11:58;8.70;;;2.75;;
78716;SDS011;68045;50.042;14.432;2023-11-21T08:16:01;10.13;;;2.83;;
78716;SDS011;68045;50.042;14.432;2023-11-21T08:20:04;8.02;;;2.97;;
78716;SDS011;68045;50.042;14.432;2023-11-21T08:24:06;4.43;;;2.80;;
78716;SDS011;68045;50.042;14.432;2023-11-21T08:28:11;5.30;;;2.60;;
78716;SDS011;68045;50.042;14.432;2023-11-21T08:32:14;9.13;;;3.08;;
78716;SDS011;68045;50.042;14.432;2023-11-21T08:36:15;4.38;;;2.13;;
78716;SDS011;68045;50.042;14.432;2023-11-21T08:40:16;3.67;;;2.58;;
78716;SDS011;68045;50.042;14.432;2023-11-21T08:44:17;5.55;;;2.50;;
78716;SDS011;68045;50.042;14.432;2023-11-21T08:48:20;4.85;;;2.63;;
78716;SDS011;68045;50.042;14.432;2023-11-21T08:52:21;5.03;;;2.95;;
78716;SDS011;68045;50.042;14.432;2023-11-21T08:56:23;6.35;;;2.95;;
78716;SDS011;68045;50.042;14.432;2023-11-21T09:00:24;5.45;;;2.72;;
78716;SDS011;68045;50.042;14.432;2023-11-21T09:04:25;4.32;;;2.50;;
78716;SDS011;68045;50.042;14.432;2023-11-21T09:08:26;5.47;;;2.58;;
78716;SDS011;68045;50.042;14.432;2023-11-21T09:12:28;4.45;;;2.40;;
78716;SDS011;68045;50.042;14.432;2023-11-21T09:16:30;6.90;;;2.53;;
78716;SDS011;68045;50.042;14.432;2023-11-21T09:24:36;4.05;;;2.30;;
78716;SDS011;68045;50.042;14.432;2023-11-21T09:28:38;4.65;;;2.83;;
78716;SDS011;68045;50.042;14.432;2023-11-21T09:32:40;6.63;;;2.97;;
78716;SDS011;68045;50.042;14.432;2023-11-21T09:36:41;6.05;;;2.70;;
78716;SDS011;68045;50.042;14.432;2023-11-21T09:40:44;8.20;;;2.83;;
78716;SDS011;68045;50.042;14.432;2023-11-21T09:44:47;7.38;;;2.45;;
78716;SDS011;68045;50.042;14.432;2023-11-21T09:48:55;5.28;;;2.75;;
78716;SDS011;68045;50.042;14.432;2023-11-21T09:57:21;8.57;;;3.25;;
78716;SDS011;68045;50.042;14.432;2023-11-21T10:01:25;4.47;;;2.42;;
78716;SDS011;68045;50.042;14.432;2023-11-21T10:05:28;4.70;;;2.50;;
78716;SDS011;68045;50.042;14.432;2023-11-21T10:09:29;8.52;;;2.70;;
78716;SDS011;68045;50.042;14.432;2023-11-21T10:13:31;8.82;;;2.67;;
78716;SDS011;68045;50.042;14.432;2023-11-21T10:17:35;3.83;;;2.22;;
78716;SDS011;68045;50.042;14.432;2023-11-21T10:21:43;4.80;;;2.55;;
78716;SDS011;68045;50.042;14.432;2023-11-21T10:25:44;5.28;;;2.75;;
78716;SDS011;68045;50.042;14.432;2023-11-21T10:29:45;5.78;;;2.83;;
78716;SDS011;68045;50.042;14.432;2023-11-21T10:33:46;6.05;;;3.25;;
78716;SDS011;68045;50.042;14.432;2023-11-21T10:37:47;7.47;;;3.28;;
78716;SDS011;68045;50.042;14.432;2023-11-21T10:42:00;4.97;;;2.75;;
78716;SDS011;68045;50.042;14.432;2023-11-21T10:46:01;7.47;;;3.30;;
78716;SDS011;68045;50.042;14.432;2023-11-21T10:50:03;5.45;;;2.90;;
78716;SDS011;68045;50.042;14.432;2023-11-21T10:54:06;7.38;;;3.40;;
78716;SDS011;68045;50.042;14.432;2023-11-21T10:58:07;3.60;;;2.20;;
78716;SDS011;68045;50.042;14.432;2023-11-21T11:02:18;5.07;;;2.97;;
78716;SDS011;68045;50.042;14.432;2023-11-21T11:06:25;6.70;;;3.15;;
78716;SDS011;68045;50.042;14.432;2023-11-21T11:10:28;7.22;;;2.50;;
78716;SDS011;68045;50.042;14.432;2023-11-21T11:14:29;5.30;;;2.35;;
78716;SDS011;68045;50.042;14.432;2023-11-21T11:18:30;5.50;;;2.47;;
78716;SDS011;68045;50.042;14.432;2023-11-21T11:22:36;5.20;;;2.65;;
78716;SDS011;68045;50.042;14.432;2023-11-21T11:26:47;5.90;;;2.47;;
78716;SDS011;68045;50.042;14.432;2023-11-21T11:35:24;8.50;;;2.60;;
78716;SDS011;68045;50.042;14.432;2023-11-21T11:39:41;5.60;;;2.40;;
78716;SDS011;68045;50.042;14.432;2023-11-21T11:43:43;5.03;;;2.63;;
78716;SDS011;68045;50.042;14.432;2023-11-21T11:47:44;7.75;;;2.95;;
78716;SDS011;68045;50.042;14.432;2023-11-21T11:51:48;7.43;;;2.97;;
78716;SDS011;68045;50.042;14.432;2023-11-21T11:55:57;8.10;;;2.45;;
78716;SDS011;68045;50.042;14.432;2023-11-21T12:00:21;5.72;;;2.50;;
78716;SDS011;68045;50.042;14.432;2023-11-21T12:04:30;6.57;;;2.50;;
78716;SDS011;68045;50.042;14.432;2023-11-21T12:08:32;6.85;;;2.97;;
78716;SDS011;68045;50.042;14.432;2023-11-21T12:12:33;3.85;;;2.28;;
78716;SDS011;68045;50.042;14.432;2023-11-21T12:16:34;5.32;;;2.38;;
78716;SDS011;68045;50.042;14.432;2023-11-21T12:20:35;4.97;;;2.08;;
78716;SDS011;68045;50.042;14.432;2023-11-21T12:24:39;5.65;;;2.47;;
78716;SDS011;68045;50.042;14.432;2023-11-21T12:28:40;2.70;;;1.90;;
78716;SDS011;68045;50.042;14.432;2023-11-21T12:32:41;5.28;;;2.63;;
78716;SDS011;68045;50.042;14.432;2023-11-21T12:36:42;5.60;;;2.75;;
78716;SDS011;68045;50.042;14.432;2023-11-21T12:40:44;4.45;;;2.50;;
78716;SDS011;68045;50.042;14.432;2023-11-21T12:44:45;5.78;;;2.78;;
78716;SDS011;68045;50.042;14.432;2023-11-21T12:52:49;4.78;;;2.58;;
78716;SDS011;68045;50.042;14.432;2023-11-21T12:56:52;6.90;;;3.45;;
78716;SDS011;68045;50.042;14.432;2023-11-21T13:00:53;6.07;;;2.72;;
78716;SDS011;68045;50.042;14.432;2023-11-21T13:04:54;6.47;;;2.47;;
78716;SDS011;68045;50.042;14.432;2023-11-21T13:08:58;5.90;;;2.67;;
78716;SDS011;68045;50.042;14.432;2023-11-21T13:13:00;4.28;;;2.60;;
78716;SDS011;68045;50.042;14.432;2023-11-21T13:17:01;6.03;;;2.58;;
78716;SDS011;68045;50.042;14.432;2023-11-21T13:21:03;5.72;;;2.72;;
78716;SDS011;68045;50.042;14.432;2023-11-21T13:25:14;6.50;;;2.63;;
78716;SDS011;68045;50.042;14.432;2023-11-21T13:29:18;7.32;;;2.85;;
78716;SDS011;68045;50.042;14.432;2023-11-21T13:33:21;6.47;;;2.60;;
78716;SDS011;68045;50.042;14.432;2023-11-21T13:37:22;4.35;;;2.70;;
78716;SDS011;68045;50.042;14.432;2023-11-21T13:41:25;4.65;;;2.75;;
78716;SDS011;68045;50.042;14.432;2023-11-21T13:45:31;9.13;;;3.22;;
78716;SDS011;68045;50.042;14.432;2023-11-21T13:49:31;4.72;;;3.03;;
78716;SDS011;68045;50.042;14.432;2023-11-21T13:53:36;7.28;;;3.28;;
78716;SDS011;68045;50.042;14.432;2023-11-21T14:01:40;7.10;;;3.55;;
78716;SDS011;68045;50.042;14.432;2023-11-21T14:05:56;6.97;;;3.30;;
78716;SDS011;68045;50.042;14.432;2023-11-21T14:09:58;9.15;;;3.53;;
78716;SDS011;68045;50.042;14.432;2023-11-21T14:13:59;8.20;;;4.00;;
78716;SDS011;68045;50.042;14.432;2023-11-21T14:18:00;6.90;;;3.50;;
78716;SDS011;68045;50.042;14.432;2023-11-21T14:22:06;10.38;;;3.85;;
78716;SDS011;68045;50.042;14.432;2023-11-21T14:26:09;9.63;;;4.35;;
78716;SDS011;68045;50.042;14.432;2023-11-21T14:30:14;7.93;;;3.55;;
78716;SDS011;68045;50.042;14.432;2023-11-21T14:34:16;6.50;;;3.38;;
78716;SDS011;68045;50.042;14.432;2023-11-21T14:38:17;8.77;;;4.40;;
78716;SDS011;68045;50.042;14.432;2023-11-21T14:42:18;8.98;;;4.40;;
78716;SDS011;68045;50.042;14.432;2023-11-21T14:46:25;8.10;;;3.63;;
78716;SDS011;68045;50.042;14.432;2023-11-21T14:50:26;5.40;;;3.05;;
78716;SDS011;68045;50.042;14.432;2023-11-21T14:54:45;6.38;;;3.58;;
78716;SDS011;68045;50.042;14.432;2023-11-21T14:58:46;6.00;;;3.55;;
78716;SDS011;68045;50.042;14.432;2023-11-21T15:02:47;5.78;;;3.15;;
78716;SDS011;68045;50.042;14.432;2023-11-21T15:06:51;7.93;;;4.15;;
78716;SDS011;68045;50.042;14.432;2023-11-21T15:14:55;7.88;;;4.47;;
78716;SDS011;68045;50.042;14.432;2023-11-21T15:18:57;8.18;;;4.32;;
78716;SDS011;68045;50.042;14.432;2023-11-21T15:22:58;8.70;;;4.13;;
78716;SDS011;68045;50.042;14.432;2023-11-21T15:27:00;5.32;;;3.13;;
78716;SDS011;68045;50.042;14.432;2023-11-21T15:31:03;5.82;;;3.13;;
78716;SDS011;68045;50.042;14.432;2023-11-21T15:35:05;7.78;;;3.30;;
78716;SDS011;68045;50.042;14.432;2023-11-21T15:39:06;4.60;;;2.58;;
78716;SDS011;68045;50.042;14.432;2023-11-21T15:43:10;6.68;;;2.88;;
78716;SDS011;68045;50.042;14.432;2023-11-21T15:47:11;3.85;;;2.33;;
78716;SDS011;68045;50.042;14.432;2023-11-21T15:51:12;5.95;;;2.78;;
78716;SDS011;68045;50.042;14.432;2023-11-21T15:55:14;6.53;;;2.60;;
78716;SDS011;68045;50.042;14.432;2023-11-21T15:59:14;4.07;;;2.58;;
78716;SDS011;68045;50.042;14.432;2023-11-21T16:03:16;4.80;;;2.83;;
78716;SDS011;68045;50.042;14.432;2023-11-21T16:07:18;6.13;;;3.22;;
78716;SDS011;68045;50.042;14.432;2023-11-21T16:11:18;5.72;;;3.35;;
78716;SDS011;68045;50.042;14.432;2023-11-21T16:15:19;6.70;;;3.17;;
78716;SDS011;68045;50.042;14.432;2023-11-21T16:19:21;5.00;;;3.08;;
78716;SDS011;68045;50.042;14.432;2023-11-21T16:23:21;4.82;;;3.10;;
78716;SDS011;68045;50.042;14.432;2023-11-21T16:27:22;5.05;;;3.00;;
78716;SDS011;68045;50.042;14.432;2023-11-21T16:31:24;4.97;;;3.08;;
78716;SDS011;68045;50.042;14.432;2023-11-21T16:35:25;7.35;;;3.75;;
78716;SDS011;68045;50.042;14.432;2023-11-21T16:39:26;6.68;;;3.88;;
78716;SDS011;68045;50.042;14.432;2023-11-21T16:43:28;6.10;;;3.70;;
78716;SDS011;68045;50.042;14.432;2023-11-21T16:47:29;6.15;;;3.63;;
78716;SDS011;68045;50.042;14.432;2023-11-21T16:51:30;4.78;;;2.95;;
78716;SDS011;68045;50.042;14.432;2023-11-21T16:55:31;5.45;;;2.85;;
78716;SDS011;68045;50.042;14.432;2023-11-21T16:59:32;4.93;;;2.70;;
78716;SDS011;68045;50.042;14.432;2023-11-21T17:03:32;4.25;;;2.58;;
78716;SDS011;68045;50.042;14.432;2023-11-21T17:07:34;5.07;;;2.40;;
78716;SDS011;68045;50.042;14.432;2023-11-21T17:11:37;6.57;;;2.67;;
78716;SDS011;68045;50.042;14.432;2023-11-21T17:15:39;4.38;;;2.58;;
78716;SDS011;68045;50.042;14.432;2023-11-21T17:19:41;5.10;;;2.65;;
78716;SDS011;68045;50.042;14.432;2023-11-21T17:23:43;5.55;;;2.60;;
78716;SDS011;68045;50.042;14.432;2023-11-21T17:27:44;4.95;;;2.67;;
78716;SDS011;68045;50.042;14.432;2023-11-21T17:31:45;4.38;;;2.75;;
78716;SDS011;68045;50.042;14.432;2023-11-21T17:35:46;3.70;;;2.47;;
78716;SDS011;68045;50.042;14.432;2023-11-21T17:39:47;7.05;;;2.97;;
78716;SDS011;68045;50.042;14.432;2023-11-21T17:43:48;4.13;;;2.38;;
78716;SDS011;68045;50.042;14.432;2023-11-21T17:47:49;6.57;;;2.13;;
78716;SDS011;68045;50.042;14.432;2023-11-21T17:51:50;4.47;;;2.72;;
78716;SDS011;68045;50.042;14.432;2023-11-21T17:55:51;5.50;;;2.70;;
78716;SDS011;68045;50.042;14.432;2023-11-21T17:59:51;6.30;;;3.08;;
78716;SDS011;68045;50.042;14.432;2023-11-21T18:03:52;6.40;;;3.08;;
78716;SDS011;68045;50.042;14.432;2023-11-21T18:07:55;6.57;;;3.38;;
78716;SDS011;68045;50.042;14.432;2023-11-21T18:11:55;5.43;;;2.85;;
78716;SDS011;68045;50.042;14.432;2023-11-21T18:15:57;8.80;;;4.15;;
78716;SDS011;68045;50.042;14.432;2023-11-21T18:19:58;8.30;;;3.45;;
78716;SDS011;68045;50.042;14.432;2023-11-21T18:23:59;6.60;;;3.10;;
78716;SDS011;68045;50.042;14.432;2023-11-21T18:28:00;6.63;;;3.00;;
78716;SDS011;68045;50.042;14.432;2023-11-21T18:32:00;7.13;;;3.80;;
78716;SDS011;68045;50.042;14.432;2023-11-21T18:36:01;7.93;;;3.35;;
78716;SDS011;68045;50.042;14.432;2023-11-21T18:40:03;6.50;;;2.90;;
78716;SDS011;68045;50.042;14.432;2023-11-21T18:44:04;9.27;;;2.78;;
78716;SDS011;68045;50.042;14.432;2023-11-21T18:48:06;4.30;;;2.35;;
78716;SDS011;68045;50.042;14.432;2023-11-21T18:52:06;4.18;;;2.13;;
78716;SDS011;68045;50.042;14.432;2023-11-21T18:56:07;7.00;;;2.83;;
78716;SDS011;68045;50.042;14.432;2023-11-21T19:00:09;6.72;;;3.15;;
78716;SDS011;68045;50.042;14.432;2023-11-21T19:04:12;6.55;;;3.05;;
78716;SDS011;68045;50.042;14.432;2023-11-21T19:08:14;4.35;;;2.45;;
78716;SDS011;68045;50.042;14.432;2023-11-21T19:12:15;6.13;;;2.60;;
78716;SDS011;68045;50.042;14.432;2023-11-21T19:16:16;4.97;;;2.70;;
78716;SDS011;68045;50.042;14.432;2023-11-21T19:20:18;7.47;;;3.22;;
78716;SDS011;68045;50.042;14.432;2023-11-21T19:24:18;6.80;;;3.50;;
78716;SDS011;68045;50.042;14.432;2023-11-21T19:28:19;5.82;;;3.08;;
78716;SDS011;68045;50.042;14.432;2023-11-21T19:32:20;4.03;;;2.67;;
78716;SDS011;68045;50.042;14.432;2023-11-21T19:36:21;6.13;;;2.90;;
78716;SDS011;68045;50.042;14.432;2023-11-21T19:40:23;6.13;;;3.00;;
78716;SDS011;68045;50.042;14.432;2023-11-21T19:44:24;6.70;;;3.00;;
78716;SDS011;68045;50.042;14.432;2023-11-21T19:48:25;5.50;;;2.55;;
78716;SDS011;68045;50.042;14.432;2023-11-21T19:52:26;7.22;;;3.33;;
78716;SDS011;68045;50.042;14.432;2023-11-21T19:56:27;6.93;;;2.20;;
78716;SDS011;68045;50.042;14.432;2023-11-21T20:00:28;5.15;;;2.67;;
78716;SDS011;68045;50.042;14.432;2023-11-21T20:04:31;3.63;;;2.35;;
78716;SDS011;68045;50.042;14.432;2023-11-21T20:08:33;5.75;;;2.65;;
78716;SDS011;68045;50.042;14.432;2023-11-21T20:20:39;4.25;;;1.80;;
78716;SDS011;68045;50.042;14.432;2023-11-21T20:24:40;3.72;;;2.08;;
78716;SDS011;68045;50.042;14.432;2023-11-21T20:28:41;3.25;;;2.00;;
78716;SDS011;68045;50.042;14.432;2023-11-21T20:32:43;4.43;;;2.30;;
78716;SDS011;68045;50.042;14.432;2023-11-21T20:36:46;4.13;;;2.15;;
78716;SDS011;68045;50.042;14.432;2023-11-21T20:40:48;5.15;;;2.13;;
78716;SDS011;68045;50.042;14.432;2023-11-21T20:44:49;3.97;;;2.13;;
78716;SDS011;68045;50.042;14.432;2023-11-21T20:48:50;3.30;;;1.70;;
78716;SDS011;68045;50.042;14.432;2023-11-21T20:52:51;2.78;;;1.60;;
78716;SDS011;68045;50.042;14.432;2023-11-21T20:56:52;2.25;;;1.45;;
78716;SDS011;68045;50.042;14.432;2023-11-21T21:00:53;2.70;;;1.70;;
78716;SDS011;68045;50.042;14.432;2023-11-21T21:04:54;2.95;;;1.75;;
78716;SDS011;68045;50.042;14.432;2023-11-21T21:08:55;2.40;;;1.40;;
78716;SDS011;68045;50.042;14.432;2023-11-21T21:12:57;4.10;;;1.60;;
78716;SDS011;68045;50.042;14.432;2023-11-21T21:16:58;5.18;;;1.33;;
78716;SDS011;68045;50.042;14.432;2023-11-21T21:21:01;3.72;;;1.88;;
78716;SDS011;68045;50.042;14.432;2023-11-21T21:25:02;4.47;;;1.60;;
78716;SDS011;68045;50.042;14.432;2023-11-21T21:29:04;3.42;;;2.10;;
78716;SDS011;68045;50.042;14.432;2023-11-21T21:33:06;2.40;;;1.45;;
78716;SDS011;68045;50.042;14.432;2023-11-21T21:37:07;3.25;;;1.92;;
78716;SDS011;68045;50.042;14.432;2023-11-21T21:41:08;3.83;;;1.52;;
78716;SDS011;68045;50.042;14.432;2023-11-21T21:45:12;2.13;;;1.27;;
78716;SDS011;68045;50.042;14.432;2023-11-21T21:49:13;3.30;;;2.00;;
78716;SDS011;68045;50.042;14.432;2023-11-21T21:53:14;2.53;;;1.52;;
78716;SDS011;68045;50.042;14.432;2023-11-21T21:57:15;2.40;;;1.52;;
78716;SDS011;68045;50.042;14.432;2023-11-21T22:01:15;2.72;;;1.88;;
78716;SDS011;68045;50.042;14.432;2023-11-21T22:05:17;3.08;;;1.65;;
78716;SDS011;68045;50.042;14.432;2023-11-21T22:09:19;4.93;;;1.85;;
78716;SDS011;68045;50.042;14.432;2023-11-21T22:13:20;5.82;;;2.15;;
78716;SDS011;68045;50.042;14.432;2023-11-21T22:17:21;3.63;;;2.03;;
78716;SDS011;68045;50.042;14.432;2023-11-21T22:21:22;3.05;;;1.90;;
78716;SDS011;68045;50.042;14.432;2023-11-21T22:25:24;4.35;;;2.30;;
78716;SDS011;68045;50.042;14.432;2023-11-21T22:29:26;5.18;;;2.20;;
78716;SDS011;68045;50.042;14.432;2023-11-21T22:33:27;3.97;;;2.13;;
78716;SDS011;68045;50.042;14.432;2023-11-21T22:37:28;2.83;;;1.70;;
78716;SDS011;68045;50.042;14.432;2023-11-21T22:41:29;3.10;;;1.92;;
78716;SDS011;68045;50.042;14.432;2023-11-21T22:45:30;4.50;;;2.13;;
78716;SDS011;68045;50.042;14.432;2023-11-21T22:49:32;4.03;;;2.15;;
78716;SDS011;68045;50.042;14.432;2023-11-21T22:53:34;7.65;;;2.92;;
78716;SDS011;68045;50.042;14.432;2023-11-21T22:57:34;5.50;;;3.15;;
78716;SDS011;68045;50.042;14.432;2023-11-21T23:01:35;3.40;;;2.20;;
78716;SDS011;68045;50.042;14.432;2023-11-21T23:05:36;4.53;;;2.30;;
78716;SDS011;68045;50.042;14.432;2023-11-21T23:09:38;4.85;;;2.28;;
78716;SDS011;68045;50.042;14.432;2023-11-21T23:13:40;3.53;;;2.22;;
78716;SDS011;68045;50.042;14.432;2023-11-21T23:17:41;3.45;;;2.13;;
78716;SDS011;68045;50.042;14.432;2023-11-21T23:21:42;5.00;;;2.53;;
78716;SDS011;68045;50.042;14.432;2023-11-21T23:25:43;5.28;;;2.40;;
78716;SDS011;68045;50.042;14.432;2023-11-21T23:29:44;4.85;;;2.17;;
78716;SDS011;68045;50.042;14.432;2023-11-21T23:33:50;3.08;;;1.88;;
78716;SDS011;68045;50.042;14.432;2023-11-21T23:37:51;3.30;;;1.77;;
78716;SDS011;68045;50.042;14.432;2023-11-21T23:41:52;2.58;;;1.67;;
78716;SDS011;68045;50.042;14.432;2023-11-21T23:45:53;4.53;;;2.13;;
78716;SDS011;68045;50.042;14.432;2023-11-21T23:49:55;3.80;;;2.10;;
78716;SDS011;68045;50.042;14.432;2023-11-21T23:53:55;3.40;;;1.90;;
78716;SDS011;68045;50.042;14.432;2023-11-21T23:57:56;3.95;;;2.30;;
